Time;durP1;ratioP1;P1;durP2;ratioP2;P2;SDS_P1;SDS_P2;PMS_P1;PMS_P2;Temp;Humidity;BMP_temperature;BMP_pressure;BME280_temperature;BME280_humidity;BME280_pressure;Samples;Min_cycle;Max_cycle;Signal;HPM_P1;HPM_P2
2021/08/15 00:00:42;;;;;;;9.82;5.22;;;17.20;99.90;;;;;;12518524;28;20128;-83
2021/08/15 00:06:44;;;;;;;15.77;5.60;;;17.40;99.90;;;;;;12517975;28;20524;-82
2021/08/15 00:12:46;;;;;;;11.27;5.75;;;17.00;99.90;;;;;;12520980;28;20766;-82
2021/08/15 00:18:48;;;;;;;14.07;5.80;;;16.90;99.90;;;;;;12516991;28;20508;-82
2021/08/15 00:24:50;;;;;;;15.02;6.35;;;17.00;99.90;;;;;;12514086;28;20678;-82
2021/08/15 00:30:52;;;;;;;15.27;5.82;;;17.00;99.90;;;;;;12524307;28;20041;-83
2021/08/15 00:36:54;;;;;;;15.93;5.55;;;16.80;99.90;;;;;;12522911;28;20049;-83
2021/08/15 00:42:56;;;;;;;14.20;5.60;;;16.40;99.90;;;;;;12531510;28;20103;-83
2021/08/15 00:48:58;;;;;;;15.20;6.40;;;16.10;99.90;;;;;;12522863;28;20053;-83
2021/08/15 00:55:07;;;;;;;17.13;7.20;;;16.30;99.90;;;;;;12533191;28;20074;-82
2021/08/15 01:01:10;;;;;;;16.15;7.07;;;16.50;99.90;;;;;;12529894;28;20106;-82
2021/08/15 01:07:13;;;;;;;17.07;8.47;;;16.50;99.90;;;;;;12536523;28;20754;-82
2021/08/15 01:13:15;;;;;;;15.73;7.70;;;16.60;99.90;;;;;;12547628;28;20143;-82
2021/08/15 01:19:17;;;;;;;18.23;8.02;;;16.60;99.90;;;;;;12531944;28;20117;-83
2021/08/15 01:25:19;;;;;;;12.35;7.15;;;16.50;99.90;;;;;;12520618;28;20053;-82
2021/08/15 01:31:22;;;;;;;14.43;7.45;;;16.50;99.90;;;;;;12526603;28;20049;-84
2021/08/15 01:37:24;;;;;;;18.70;8.17;;;16.70;99.90;;;;;;12518434;28;20044;-82
2021/08/15 01:43:26;;;;;;;14.48;7.55;;;16.90;99.90;;;;;;12528879;28;20490;-84
2021/08/15 01:49:28;;;;;;;15.05;7.32;;;17.20;99.90;;;;;;12528451;28;20049;-83
2021/08/15 01:55:30;;;;;;;17.25;8.00;;;17.10;99.90;;;;;;12538863;28;20053;-82
2021/08/15 02:01:32;;;;;;;18.02;8.55;;;17.10;99.90;;;;;;12524757;28;20053;-82
2021/08/15 02:07:34;;;;;;;19.55;8.57;;;16.80;99.90;;;;;;12526483;28;20076;-83
2021/08/15 02:13:36;;;;;;;17.65;8.38;;;16.70;99.90;;;;;;12522624;28;20053;-83
2021/08/15 02:19:38;;;;;;;17.35;8.15;;;16.80;99.90;;;;;;12518850;28;20044;-83
2021/08/15 02:25:40;;;;;;;13.98;7.65;;;17.00;99.90;;;;;;12526535;28;20048;-83
2021/08/15 02:31:42;;;;;;;15.10;7.43;;;17.10;99.90;;;;;;12522884;28;20052;-82
2021/08/15 02:37:49;;;;;;;15.95;7.10;;;17.00;99.90;;;;;;12524245;28;20139;-82
2021/08/15 02:43:52;;;;;;;14.85;7.00;;;16.90;99.90;;;;;;12520256;28;20044;-82
2021/08/15 02:49:53;;;;;;;16.15;7.95;;;16.70;99.90;;;;;;12528700;28;20052;-82
2021/08/15 02:55:55;;;;;;;16.63;8.98;;;16.60;99.90;;;;;;12520894;28;20171;-82
2021/08/15 03:01:57;;;;;;;23.02;10.10;;;16.50;99.90;;;;;;12522038;28;20044;-83
2021/08/15 03:07:59;;;;;;;17.85;9.77;;;16.20;99.90;;;;;;12540263;28;20052;-82
2021/08/15 03:14:00;;;;;;;17.08;9.85;;;16.10;99.90;;;;;;12529513;28;20044;-82
2021/08/15 03:20:03;;;;;;;19.58;9.98;;;15.80;99.90;;;;;;12527327;28;20069;-83
2021/08/15 03:26:06;;;;;;;26.30;11.77;;;15.90;99.90;;;;;;12525000;28;20057;-82
2021/08/15 03:32:08;;;;;;;17.37;9.60;;;15.80;99.90;;;;;;12524476;28;20110;-83
2021/08/15 03:38:10;;;;;;;21.00;10.45;;;15.90;99.90;;;;;;12525136;28;20082;-82
2021/08/15 03:44:12;;;;;;;17.88;10.43;;;15.80;99.90;;;;;;12529139;28;20048;-83
2021/08/15 03:50:13;;;;;;;23.63;10.95;;;15.80;99.90;;;;;;12531693;28;20109;-83
2021/08/15 03:56:15;;;;;;;23.67;11.50;;;15.70;99.90;;;;;;12531016;28;20055;-84
2021/08/15 04:02:17;;;;;;;22.42;11.85;;;15.80;99.90;;;;;;12532393;28;20081;-82
2021/08/15 04:08:18;;;;;;;23.17;11.55;;;15.80;99.90;;;;;;12523597;28;20132;-82
2021/08/15 04:14:22;;;;;;;25.00;12.25;;;15.80;99.90;;;;;;12525290;28;20528;-83
2021/08/15 04:20:24;;;;;;;23.70;12.00;;;15.90;99.90;;;;;;12517232;28;20056;-82
2021/08/15 04:26:26;;;;;;;23.70;11.43;;;16.10;99.90;;;;;;12527498;28;20041;-82
2021/08/15 04:32:28;;;;;;;25.58;12.20;;;16.30;99.90;;;;;;12532101;28;20457;-82
2021/08/15 04:38:30;;;;;;;31.67;12.30;;;16.30;99.90;;;;;;12540622;28;20123;-82
2021/08/15 04:44:32;;;;;;;23.15;11.98;;;16.40;99.90;;;;;;12514460;28;20037;-83
2021/08/15 04:50:34;;;;;;;22.90;11.10;;;16.40;99.90;;;;;;12526218;28;20052;-82
2021/08/15 04:56:36;;;;;;;21.50;11.52;;;16.40;99.90;;;;;;12522372;28;20166;-82
2021/08/15 05:02:38;;;;;;;24.95;11.32;;;16.60;99.90;;;;;;12520499;28;20045;-81
2021/08/15 05:08:40;;;;;;;26.05;11.45;;;16.50;99.90;;;;;;12516249;28;20060;-82
2021/08/15 05:14:41;;;;;;;22.77;10.13;;;16.60;99.90;;;;;;12521440;28;20109;-82
2021/08/15 05:20:43;;;;;;;17.30;9.00;;;16.70;99.90;;;;;;12521872;28;20057;-83
2021/08/15 05:26:45;;;;;;;14.63;7.90;;;16.70;99.90;;;;;;12525269;28;20107;-82
2021/08/15 05:32:47;;;;;;;13.88;7.90;;;16.80;99.90;;;;;;12524571;28;20774;-82
2021/08/15 05:38:49;;;;;;;15.15;8.27;;;16.80;99.90;;;;;;12529076;28;20538;-83
2021/08/15 05:44:51;;;;;;;12.60;8.20;;;16.60;99.90;;;;;;12532207;28;20090;-83
2021/08/15 05:50:52;;;;;;;16.55;9.25;;;16.10;99.90;;;;;;12533434;28;20040;-82
2021/08/15 05:56:54;;;;;;;25.08;12.10;;;16.50;99.90;;;;;;12526568;28;20550;-82
2021/08/15 06:02:56;;;;;;;21.88;11.43;;;16.40;99.90;;;;;;12528377;28;20895;-83
2021/08/15 06:08:59;;;;;;;22.58;10.80;;;16.80;99.90;;;;;;12534543;28;20498;-83
2021/08/15 06:15:02;;;;;;;26.73;11.40;;;17.10;99.90;;;;;;12536213;28;20067;-83
2021/08/15 06:21:04;;;;;;;17.25;11.27;;;17.30;99.90;;;;;;12529776;28;20131;-82
2021/08/15 06:27:06;;;;;;;23.13;11.23;;;17.40;99.90;;;;;;12529486;28;20041;-84
2021/08/15 06:33:08;;;;;;;21.38;10.95;;;17.50;99.90;;;;;;12531643;28;20048;-83
2021/08/15 06:39:09;;;;;;;20.55;10.43;;;17.60;99.90;;;;;;12533967;28;20045;-83
2021/08/15 06:45:12;;;;;;;25.30;11.15;;;17.90;99.90;;;;;;12533316;28;20584;-83
2021/08/15 06:51:13;;;;;;;25.63;11.50;;;18.00;99.90;;;;;;12528036;28;20037;-83
2021/08/15 06:57:15;;;;;;;23.60;11.60;;;17.90;99.90;;;;;;12534255;28;20045;-82
2021/08/15 07:03:17;;;;;;;20.42;11.55;;;17.90;99.90;;;;;;12524003;28;20132;-82
2021/08/15 07:09:19;;;;;;;23.45;12.27;;;18.10;99.90;;;;;;12539759;28;20834;-82
2021/08/15 07:15:22;;;;;;;20.88;12.38;;;18.10;99.90;;;;;;12540968;28;20049;-83
2021/08/15 07:21:24;;;;;;;24.00;11.67;;;18.10;99.90;;;;;;12532934;28;20044;-82
2021/08/15 07:27:26;;;;;;;24.90;13.32;;;18.20;99.90;;;;;;12529932;28;20436;-82
2021/08/15 07:33:28;;;;;;;24.17;12.27;;;18.20;99.90;;;;;;12535770;28;20049;-83
2021/08/15 07:39:29;;;;;;;25.20;11.68;;;18.20;99.90;;;;;;12528303;28;20045;-82
2021/08/15 07:45:32;;;;;;;19.52;12.18;;;18.40;99.90;;;;;;12534452;28;20128;-83
2021/08/15 07:51:34;;;;;;;22.40;13.00;;;18.60;99.90;;;;;;12537554;28;20124;-83
2021/08/15 07:57:36;;;;;;;24.08;12.07;;;18.70;99.90;;;;;;12543775;28;20772;-83
2021/08/15 08:03:39;;;;;;;23.20;11.70;;;18.70;99.90;;;;;;12547828;28;20135;-83
2021/08/15 08:09:41;;;;;;;22.75;11.90;;;18.70;99.90;;;;;;12521640;28;20048;-83
2021/08/15 08:15:43;;;;;;;21.88;11.52;;;18.90;99.90;;;;;;12542626;28;20488;-83
2021/08/15 08:21:45;;;;;;;22.42;10.48;;;19.30;99.90;;;;;;12521093;28;20133;-84
2021/08/15 08:27:46;;;;;;;21.98;10.45;;;19.50;99.90;;;;;;12528160;28;20477;-83
2021/08/15 08:33:48;;;;;;;16.45;10.07;;;19.80;99.90;;;;;;12530410;28;20896;-82
2021/08/15 08:39:52;;;;;;;22.67;10.90;;;20.10;99.90;;;;;;12534488;28;20094;-82
2021/08/15 08:45:55;;;;;;;18.33;9.38;;;20.20;99.90;;;;;;12551115;28;20091;-83
2021/08/15 08:51:58;;;;;;;14.27;7.95;;;20.60;99.90;;;;;;12558651;28;20488;-84
2021/08/15 08:57:59;;;;;;;13.95;7.72;;;21.10;99.90;;;;;;12569094;28;20059;-83
2021/08/15 09:04:01;;;;;;;14.38;8.88;;;21.40;99.90;;;;;;12574353;28;20037;-84
2021/08/15 09:10:08;;;;;;;17.35;8.20;;;21.70;99.90;;;;;;12566462;28;20056;-84
2021/08/15 09:16:09;;;;;;;15.45;7.63;;;22.00;99.90;;;;;;12580576;28;20053;-84
2021/08/15 09:22:17;;;;;;;13.07;7.57;;;21.80;99.90;;;;;;12548787;28;20050;-84
2021/08/15 09:28:32;;;;;;;16.23;8.48;;;21.60;99.90;;;;;;12562161;28;20451;-83
2021/08/15 09:34:34;;;;;;;16.95;7.65;;;21.60;99.90;;;;;;12557034;28;21775;-83
2021/08/15 09:40:48;;;;;;;15.73;7.43;;;21.40;99.90;;;;;;12543272;28;20084;-83
2021/08/15 09:47:02;;;;;;;16.15;7.45;;;21.60;99.90;;;;;;12548931;28;20097;-83
2021/08/15 09:53:04;;;;;;;15.55;6.82;;;21.80;99.90;;;;;;12551375;28;20691;-83
2021/08/15 09:59:12;;;;;;;14.38;6.70;;;22.20;99.90;;;;;;12551483;28;20131;-84
2021/08/15 10:05:15;;;;;;;10.70;5.40;;;22.00;99.90;;;;;;12546473;28;20036;-84
2021/08/15 10:11:17;;;;;;;13.87;6.57;;;22.00;99.90;;;;;;12549866;28;20048;-84
2021/08/15 10:17:21;;;;;;;12.75;5.38;;;22.10;99.90;;;;;;12552194;28;20044;-85
2021/08/15 10:23:22;;;;;;;;;;;22.50;99.90;;;;;;12550259;28;20186;-84
2021/08/15 10:29:31;;;;;;;9.15;3.88;;;22.60;99.90;;;;;;12547115;28;19956;-82
2021/08/15 10:35:38;;;;;;;8.00;3.97;;;23.20;99.90;;;;;;12543564;28;20121;-83
2021/08/15 10:41:47;;;;;;;7.90;3.75;;;23.50;99.90;;;;;;12541479;28;20182;-85
2021/08/15 10:48:08;;;;;;;10.70;3.85;;;23.70;99.90;;;;;;12565565;28;20044;-85
2021/08/15 10:54:28;;;;;;;7.40;3.45;;;23.90;99.90;;;;;;12548122;28;20056;-84
2021/08/15 11:00:30;;;;;;;6.78;3.28;;;24.60;99.90;;;;;;12560656;28;20052;-84
2021/08/15 11:06:32;;;;;;;8.57;3.72;;;24.90;99.90;;;;;;12581344;28;20049;-84
2021/08/15 11:12:34;;;;;;;7.43;3.45;;;25.00;99.90;;;;;;12546450;28;20068;-83
2021/08/15 11:18:36;;;;;;;10.77;3.77;;;25.70;99.90;;;;;;12552441;28;20081;-84
2021/08/15 11:24:44;;;;;;;8.25;3.90;;;25.20;99.90;;;;;;12566293;28;20049;-83
2021/08/15 11:30:55;;;;;;;7.22;3.05;;;24.40;99.90;;;;;;12544924;28;20135;-84
2021/08/15 11:37:00;;;;;;;9.00;2.92;;;24.40;99.90;;;;;;12532156;28;20055;-84
2021/08/15 11:43:10;;;;;;;7.05;3.10;;;24.70;99.90;;;;;;12540330;28;20040;-83
2021/08/15 11:49:33;;;;;;;7.93;3.30;;;24.90;99.90;;;;;;12556917;28;20138;-84
2021/08/15 11:55:35;;;;;;;8.00;3.58;;;24.80;99.90;;;;;;12542131;28;20092;-84
2021/08/15 12:01:37;;;;;;;10.20;3.65;;;25.10;99.90;;;;;;12550616;28;20110;-83
2021/08/15 12:07:39;;;;;;;18.90;3.93;;;25.60;99.90;;;;;;12546946;28;20612;-83
2021/08/15 12:13:41;;;;;;;7.72;3.00;;;25.80;99.90;;;;;;12544465;28;20067;-83
2021/08/15 12:19:43;;;;;;;5.97;2.72;;;25.90;99.90;;;;;;12540463;28;20537;-83
2021/08/15 12:26:00;;;;;;;6.25;2.92;;;25.80;99.90;;;;;;12544181;28;20174;-84
2021/08/15 12:32:15;;;;;;;5.32;2.80;;;26.70;99.90;;;;;;12561489;28;20097;-84
2021/08/15 12:38:28;;;;;;;8.60;2.83;;;26.70;99.90;;;;;;12573682;28;20070;-84
2021/08/15 12:44:44;;;;;;;6.32;2.35;;;26.80;99.90;;;;;;12565432;28;20092;-83
2021/08/15 12:50:58;;;;;;;5.28;2.42;;;27.20;99.90;;;;;;12553138;28;20124;-84
2021/08/15 12:57:00;;;;;;;4.25;1.90;;;26.70;99.90;;;;;;12564428;28;20080;-84
2021/08/15 13:03:04;;;;;;;7.07;2.17;;;26.00;99.90;;;;;;12558470;28;20049;-84
2021/08/15 13:09:06;;;;;;;3.65;1.80;;;26.10;99.90;;;;;;12545928;28;20060;-83
2021/08/15 13:15:09;;;;;;;4.72;2.20;;;26.80;99.90;;;;;;12550306;28;20045;-84
2021/08/15 13:21:11;;;;;;;5.35;1.90;;;26.60;99.90;;;;;;12561936;28;20041;-84
2021/08/15 13:27:14;;;;;;;5.20;2.20;;;26.50;99.90;;;;;;12564111;28;20048;-86
2021/08/15 13:33:19;;;;;;;6.45;2.17;;;27.00;99.90;;;;;;12558045;28;20059;-84
2021/08/15 13:39:21;;;;;;;4.33;2.50;;;27.60;99.90;;;;;;12555112;28;20045;-84
2021/08/15 13:45:23;;;;;;;6.30;2.20;;;27.60;99.90;;;;;;12547945;28;20072;-84
2021/08/15 13:51:26;;;;;;;7.22;2.30;;;27.20;99.90;;;;;;12546561;28;20038;-85
2021/08/15 13:57:28;;;;;;;5.07;2.10;;;26.80;99.90;;;;;;12546825;28;20044;-85
2021/08/15 14:03:30;;;;;;;4.85;2.13;;;26.30;99.90;;;;;;12553010;28;20667;-84
2021/08/15 14:09:32;;;;;;;5.10;1.67;;;26.50;99.90;;;;;;12556122;28;20366;-84
2021/08/15 14:15:35;;;;;;;5.75;2.10;;;26.90;99.90;;;;;;12543790;28;20057;-84
2021/08/15 14:21:37;;;;;;;4.95;2.10;;;26.80;99.90;;;;;;12561096;28;20045;-84
2021/08/15 14:27:40;;;;;;;4.73;2.03;;;26.60;99.90;;;;;;12559913;28;20080;-85
2021/08/15 14:33:42;;;;;;;5.15;2.08;;;26.20;99.90;;;;;;12555120;28;20784;-84
2021/08/15 14:39:44;;;;;;;4.07;1.95;;;26.10;99.90;;;;;;12546284;28;20049;-84
2021/08/15 14:45:47;;;;;;;5.13;2.13;;;26.50;99.90;;;;;;12559836;28;20044;-83
2021/08/15 14:51:48;;;;;;;4.60;2.10;;;26.00;99.90;;;;;;12546976;28;20396;-85
2021/08/15 14:57:50;;;;;;;6.45;2.00;;;26.00;99.90;;;;;;12541456;28;20045;-84
2021/08/15 15:03:52;;;;;;;7.33;2.40;;;26.30;99.90;;;;;;12550770;28;20041;-85
2021/08/15 15:09:55;;;;;;;8.90;2.10;;;26.60;99.90;;;;;;12550419;28;20319;-84
2021/08/15 15:15:57;;;;;;;6.60;2.45;;;26.60;99.90;;;;;;12538477;28;20055;-84
2021/08/15 15:21:58;;;;;;;5.97;2.58;;;26.60;99.90;;;;;;12535559;28;20052;-84
2021/08/15 15:28:00;;;;;;;7.97;2.57;;;26.70;99.90;;;;;;12547289;28;20055;-85
2021/08/15 15:34:02;;;;;;;6.28;2.30;;;27.00;99.90;;;;;;12531608;28;20045;-85
2021/08/15 15:40:06;;;;;;;6.18;2.50;;;26.30;99.90;;;;;;12538973;28;20148;-85
2021/08/15 15:46:25;;;;;;;4.43;2.30;;;25.90;99.90;;;;;;12551843;28;20048;-84
2021/08/15 15:52:28;;;;;;;6.47;2.60;;;26.00;99.90;;;;;;12530382;28;20722;-85
2021/08/15 15:58:29;;;;;;;6.38;2.20;;;26.30;99.90;;;;;;12535974;28;20464;-84
2021/08/15 16:04:31;;;;;;;3.85;2.08;;;26.80;99.90;;;;;;12516545;28;20052;-83
2021/08/15 16:10:35;;;;;;;5.47;1.92;;;26.50;99.90;;;;;;12526347;28;20045;-84
2021/08/15 16:16:37;;;;;;;4.30;2.17;;;26.10;99.90;;;;;;12524884;28;20052;-84
2021/08/15 16:22:39;;;;;;;5.37;2.20;;;26.00;99.90;;;;;;12528176;28;20049;-84
2021/08/15 16:28:41;;;;;;;4.95;2.20;;;25.60;99.90;;;;;;12524979;28;20056;-85
2021/08/15 16:34:43;;;;;;;5.85;2.58;;;25.40;99.90;;;;;;12526079;28;20547;-85
2021/08/15 16:40:45;;;;;;;7.28;2.20;;;25.60;99.90;;;;;;12525861;28;20072;-85
2021/08/15 16:46:48;;;;;;;7.47;1.80;;;25.50;99.90;;;;;;12521060;28;20103;-84
2021/08/15 16:52:51;;;;;;;5.10;2.38;;;25.90;99.90;;;;;;12519674;28;20052;-84
2021/08/15 16:58:52;;;;;;;7.65;2.38;;;25.90;99.90;;;;;;12531001;28;20070;-83
2021/08/15 17:04:54;;;;;;;4.28;2.33;;;26.00;99.90;;;;;;12509006;28;20048;-84
2021/08/15 17:10:56;;;;;;;7.70;2.45;;;25.90;99.90;;;;;;12525087;28;20470;-84
2021/08/15 17:16:58;;;;;;;8.88;2.53;;;25.90;99.90;;;;;;12527533;28;20074;-85
2021/08/15 17:23:00;;;;;;;8.10;2.30;;;25.50;99.90;;;;;;12535780;28;20048;-84
2021/08/15 17:29:02;;;;;;;7.97;2.20;;;25.00;99.90;;;;;;12543796;28;20048;-84
2021/08/15 17:35:04;;;;;;;5.87;2.73;;;25.10;99.90;;;;;;12525887;28;20053;-84
2021/08/15 17:41:06;;;;;;;5.83;2.10;;;24.70;99.90;;;;;;12531946;28;20049;-84
2021/08/15 17:47:08;;;;;;;5.65;2.30;;;24.50;99.90;;;;;;12533090;28;20044;-84
2021/08/15 17:53:10;;;;;;;4.60;2.30;;;24.50;99.90;;;;;;12534058;28;20049;-84
2021/08/15 17:59:15;;;;;;;7.07;2.28;;;24.60;99.90;;;;;;12535742;28;20053;-85
2021/08/15 18:05:17;;;;;;;5.88;2.10;;;24.80;99.90;;;;;;12528560;28;20471;-84
2021/08/15 18:11:19;;;;;;;6.33;2.17;;;24.80;99.90;;;;;;12534901;28;20049;-84
2021/08/15 18:17:22;;;;;;;14.45;3.13;;;24.60;99.90;;;;;;12530520;28;20041;-84
2021/08/15 18:23:25;;;;;;;8.07;2.50;;;24.50;99.90;;;;;;12539140;28;20623;-84
2021/08/15 18:29:27;;;;;;;15.07;2.97;;;24.40;99.90;;;;;;12525188;28;20143;-85
2021/08/15 18:35:29;;;;;;;9.75;2.72;;;24.20;99.90;;;;;;12527367;28;20049;-84
2021/08/15 18:41:36;;;;;;;7.03;2.70;;;23.90;99.90;;;;;;12527249;28;20124;-84
2021/08/15 18:47:39;;;;;;;11.63;2.90;;;23.60;99.90;;;;;;12533787;28;20053;-84
2021/08/15 18:53:40;;;;;;;6.32;3.15;;;23.30;99.90;;;;;;12534009;28;20113;-84
2021/08/15 18:59:42;;;;;;;8.00;3.22;;;23.20;99.90;;;;;;12535164;28;20044;-84
2021/08/15 19:05:44;;;;;;;8.75;4.35;;;23.00;99.90;;;;;;12528646;28;20068;-85
2021/08/15 19:11:47;;;;;;;9.57;4.00;;;22.80;99.90;;;;;;12533531;28;20488;-84
2021/08/15 19:17:52;;;;;;;8.15;2.97;;;22.70;99.90;;;;;;12535779;28;20101;-83
2021/08/15 19:23:55;;;;;;;6.93;2.80;;;22.50;99.90;;;;;;12525313;28;20048;-84
2021/08/15 19:29:57;;;;;;;5.25;2.45;;;22.40;99.90;;;;;;12530654;28;20102;-84
2021/08/15 19:36:00;;;;;;;8.85;3.17;;;22.20;99.90;;;;;;12534209;28;20044;-83
2021/08/15 19:42:03;;;;;;;10.32;3.00;;;21.90;99.90;;;;;;12530904;28;20159;-84
2021/08/15 19:48:06;;;;;;;5.72;3.00;;;21.80;99.90;;;;;;12526629;28;20345;-83
2021/08/15 19:54:08;;;;;;;7.18;3.10;;;21.50;99.90;;;;;;12528813;28;20181;-83
2021/08/15 20:00:12;;;;;;;8.80;3.03;;;21.30;99.90;;;;;;12522682;28;20481;-83
2021/08/15 20:06:14;;;;;;;5.75;2.88;;;21.10;99.90;;;;;;12525413;28;20049;-84
2021/08/15 20:12:16;;;;;;;7.28;2.80;;;20.80;99.90;;;;;;12526525;28;20642;-83
2021/08/15 20:18:18;;;;;;;7.60;2.80;;;20.60;99.90;;;;;;12529077;28;20071;-84
2021/08/15 20:24:20;;;;;;;9.45;3.20;;;20.60;99.90;;;;;;12525063;28;20116;-84
2021/08/15 20:30:25;;;;;;;6.55;3.00;;;20.50;99.90;;;;;;12526345;28;20053;-83
2021/08/15 20:36:27;;;;;;;8.27;3.00;;;20.40;99.90;;;;;;12531111;28;20502;-84
2021/08/15 20:42:29;;;;;;;5.45;2.90;;;20.50;99.90;;;;;;12529695;28;20053;-83
2021/08/15 20:48:32;;;;;;;10.27;3.30;;;20.60;99.90;;;;;;12529073;28;20097;-83
2021/08/15 20:54:33;;;;;;;9.53;2.67;;;20.40;99.90;;;;;;12530482;28;20045;-83
2021/08/15 21:00:35;;;;;;;10.32;2.88;;;20.40;99.90;;;;;;12536711;28;20052;-83
2021/08/15 21:06:38;;;;;;;9.88;3.20;;;20.40;99.90;;;;;;12535869;28;20114;-83
2021/08/15 21:12:40;;;;;;;6.83;2.80;;;20.60;99.90;;;;;;12555164;28;20520;-83
2021/08/15 21:18:42;;;;;;;7.05;3.30;;;20.90;99.90;;;;;;12538396;28;20106;-83
2021/08/15 21:24:44;;;;;;;5.25;2.83;;;21.10;99.90;;;;;;12539099;28;20041;-82
2021/08/15 21:30:45;;;;;;;21.15;4.63;;;21.50;99.90;;;;;;12535992;28;20093;-84
2021/08/15 21:36:47;;;;;;;22.13;5.72;;;20.70;99.90;;;;;;12537598;28;20512;-85
2021/08/15 21:42:49;;;;;;;13.85;4.90;;;20.00;99.90;;;;;;12549514;28;20041;-86
2021/08/15 21:48:51;;;;;;;19.63;5.07;;;19.70;99.90;;;;;;12506201;28;20052;-87
2021/08/15 21:54:53;;;;;;;10.85;4.63;;;19.00;99.90;;;;;;12531254;28;20041;-87
2021/08/15 22:00:55;;;;;;;13.68;4.80;;;18.70;99.90;;;;;;12537770;28;20448;-87
2021/08/15 22:06:58;;;;;;;13.25;4.60;;;18.40;99.90;;;;;;12536091;28;20063;-86
2021/08/15 22:13:00;;;;;;;10.88;4.88;;;18.20;99.90;;;;;;12532203;28;20630;-86
2021/08/15 22:19:03;;;;;;;9.23;4.10;;;18.10;99.90;;;;;;12519446;28;20603;-86
2021/08/15 22:25:07;;;;;;;10.20;4.10;;;18.00;99.90;;;;;;12526910;28;20045;-87
2021/08/15 22:31:08;;;;;;;;;;;17.90;99.90;;;;;;12531665;28;20048;-86
2021/08/15 22:37:10;;;;;;;8.75;4.28;;;17.80;99.90;;;;;;12535416;28;19928;-86
2021/08/15 22:43:12;;;;;;;11.23;4.60;;;17.60;99.90;;;;;;12519375;28;20037;-86
2021/08/15 22:49:16;;;;;;;7.72;4.65;;;17.50;99.90;;;;;;12531696;28;20048;-86
2021/08/15 22:55:17;;;;;;;9.27;4.53;;;17.50;99.90;;;;;;12518769;28;20132;-86
2021/08/15 23:01:19;;;;;;;6.82;4.20;;;17.60;99.90;;;;;;12537527;28;20037;-83
2021/08/15 23:07:21;;;;;;;8.93;4.80;;;18.00;99.90;;;;;;12539266;28;20049;-84
2021/08/15 23:13:23;;;;;;;10.32;4.80;;;18.20;99.90;;;;;;12541641;28;20688;-85
2021/08/15 23:19:25;;;;;;;9.57;5.18;;;18.20;99.90;;;;;;12538618;28;20629;-85
2021/08/15 23:25:27;;;;;;;9.88;5.13;;;18.30;99.90;;;;;;12531143;28;20455;-85
2021/08/15 23:31:29;;;;;;;9.93;4.55;;;18.40;99.90;;;;;;12521032;28;20048;-85
2021/08/15 23:37:31;;;;;;;9.15;4.95;;;18.50;99.90;;;;;;12530375;28;20055;-85
2021/08/15 23:43:33;;;;;;;11.23;5.05;;;18.50;99.90;;;;;;12529066;28;20048;-86
2021/08/15 23:49:38;;;;;;;9.90;5.57;;;18.20;99.90;;;;;;12537502;28;20728;-86
2021/08/15 23:55:40;;;;;;;11.20;5.60;;;18.00;99.90;;;;;;12518639;28;20512;-86
